sensor_id;sensor_type;location;lat;lon;timestamp;pressure;altitude;pressure_sealevel;temperature;humidity
56831;BME280;42713;42.676;23.352;2023-04-07T00:01:04;94492.88;;;2.57;47.65
56831;BME280;42713;42.676;23.352;2023-04-07T00:03:30;94500.88;;;2.62;47.44
56831;BME280;42713;42.676;23.352;2023-04-07T00:05:55;94500.44;;;2.65;47.57
56831;BME280;42713;42.676;23.352;2023-04-07T00:08:21;94496.84;;;2.60;47.55
56831;BME280;42713;42.676;23.352;2023-04-07T00:10:46;94496.47;;;2.56;47.49
56831;BME280;42713;42.676;23.352;2023-04-07T00:13:12;94500.03;;;2.62;47.45
56831;BME280;42713;42.676;23.352;2023-04-07T00:15:37;94494.69;;;2.63;47.76
56831;BME280;42713;42.676;23.352;2023-04-07T00:18:03;94500.06;;;2.69;47.31
56831;BME280;42713;42.676;23.352;2023-04-07T00:20:28;94497.06;;;2.65;47.22
56831;BME280;42713;42.676;23.352;2023-04-07T00:22:54;94503.84;;;2.66;47.24
56831;BME280;42713;42.676;23.352;2023-04-07T00:25:19;94495.69;;;2.69;46.62
56831;BME280;42713;42.676;23.352;2023-04-07T00:27:45;94501.25;;;2.66;46.53
56831;BME280;42713;42.676;23.352;2023-04-07T00:30:10;94490.91;;;2.66;46.68
56831;BME280;42713;42.676;23.352;2023-04-07T00:32:36;94500.88;;;2.69;46.69
56831;BME280;42713;42.676;23.352;2023-04-07T00:35:02;94493.72;;;2.64;46.70
56831;BME280;42713;42.676;23.352;2023-04-07T00:37:27;94497.06;;;2.65;46.91
56831;BME280;42713;42.676;23.352;2023-04-07T00:39:53;94494.66;;;2.50;47.02
56831;BME280;42713;42.676;23.352;2023-04-07T00:42:18;94496.66;;;2.48;47.16
56831;BME280;42713;42.676;23.352;2023-04-07T00:44:44;94494.88;;;2.55;47.40
56831;BME280;42713;42.676;23.352;2023-04-07T00:47:09;94491.13;;;2.58;48.22
56831;BME280;42713;42.676;23.352;2023-04-07T00:49:38;94491.13;;;2.58;49.04
56831;BME280;42713;42.676;23.352;2023-04-07T00:52:04;94497.06;;;2.65;50.26
56831;BME280;42713;42.676;23.352;2023-04-07T00:54:33;94493.88;;;2.63;48.78
56831;BME280;42713;42.676;23.352;2023-04-07T00:56:58;94495.69;;;2.69;50.41
56831;BME280;42713;42.676;23.352;2023-04-07T00:59:25;94493.69;;;2.71;50.98
56831;BME280;42713;42.676;23.352;2023-04-07T01:04:42;94490.50;;;2.76;51.80
56831;BME280;42713;42.676;23.352;2023-04-07T01:07:17;94488.34;;;2.73;51.38
56831;BME280;42713;42.676;23.352;2023-04-07T01:09:49;94488.94;;;2.68;49.93
56831;BME280;42713;42.676;23.352;2023-04-07T01:15:11;94476.97;;;2.60;53.04
56831;BME280;42713;42.676;23.352;2023-04-07T01:17:44;94488.09;;;2.61;53.71
56831;BME280;42713;42.676;23.352;2023-04-07T01:20:15;94477.56;;;2.56;54.35
56831;BME280;42713;42.676;23.352;2023-04-07T01:22:45;94485.34;;;2.56;54.78
56831;BME280;42713;42.676;23.352;2023-04-07T01:30:39;94471.22;;;2.45;56.22
56831;BME280;42713;42.676;23.352;2023-04-07T01:33:07;94479.34;;;2.42;56.76
56831;BME280;42713;42.676;23.352;2023-04-07T01:35:35;94477.97;;;2.39;57.04
56831;BME280;42713;42.676;23.352;2023-04-07T01:38:02;94476.78;;;2.42;56.76
56831;BME280;42713;42.676;23.352;2023-04-07T01:40:29;94477.16;;;2.39;57.21
56831;BME280;42713;42.676;23.352;2023-04-07T01:42:56;94485.72;;;2.39;57.08
56831;BME280;42713;42.676;23.352;2023-04-07T01:45:23;94470.19;;;2.32;57.11
56831;BME280;42713;42.676;23.352;2023-04-07T01:47:49;94466.22;;;2.30;57.76
56831;BME280;42713;42.676;23.352;2023-04-07T01:50:15;94475.16;;;2.27;58.09
56831;BME280;42713;42.676;23.352;2023-04-07T01:52:41;94464.22;;;2.25;58.22
56831;BME280;42713;42.676;23.352;2023-04-07T01:55:08;94467.19;;;2.22;57.76
56831;BME280;42713;42.676;23.352;2023-04-07T01:57:34;94472.38;;;2.22;58.41
56831;BME280;42713;42.676;23.352;2023-04-07T01:59:59;94456.84;;;2.15;58.08
56831;BME280;42713;42.676;23.352;2023-04-07T02:02:25;94462.22;;;2.21;58.10
56831;BME280;42713;42.676;23.352;2023-04-07T02:05:00;94458.22;;;2.18;58.19
56831;BME280;42713;42.676;23.352;2023-04-07T02:07:44;94468.97;;;2.15;58.51
56831;BME280;42713;42.676;23.352;2023-04-07T02:10:11;94464.59;;;2.15;58.43
56831;BME280;42713;42.676;23.352;2023-04-07T02:12:38;94461.81;;;2.10;59.08
56831;BME280;42713;42.676;23.352;2023-04-07T02:15:07;94461.22;;;2.08;59.04
56831;BME280;42713;42.676;23.352;2023-04-07T02:17:35;94462.19;;;2.07;59.23
56831;BME280;42713;42.676;23.352;2023-04-07T02:20:02;94460.22;;;2.09;59.39
56831;BME280;42713;42.676;23.352;2023-04-07T02:22:29;94465.97;;;2.11;59.14
56831;BME280;42713;42.676;23.352;2023-04-07T02:24:55;94461.00;;;2.10;59.50
56831;BME280;42713;42.676;23.352;2023-04-07T02:27:21;94459.81;;;2.12;59.05
56831;BME280;42713;42.676;23.352;2023-04-07T02:29:46;94464.81;;;2.14;59.21
56831;BME280;42713;42.676;23.352;2023-04-07T02:32:12;94463.38;;;2.11;59.18
56831;BME280;42713;42.676;23.352;2023-04-07T02:34:37;94461.41;;;2.13;59.51
56831;BME280;42713;42.676;23.352;2023-04-07T02:37:02;94460.63;;;2.13;59.12
56831;BME280;42713;42.676;23.352;2023-04-07T02:39:28;94466.97;;;2.17;59.38
56831;BME280;42713;42.676;23.352;2023-04-07T02:41:54;94462.63;;;2.17;59.29
56831;BME280;42713;42.676;23.352;2023-04-07T02:44:21;94463.41;;;2.18;59.44
56831;BME280;42713;42.676;23.352;2023-04-07T02:46:46;94470.38;;;2.17;59.53
56831;BME280;42713;42.676;23.352;2023-04-07T02:49:12;94469.38;;;2.18;59.21
56831;BME280;42713;42.676;23.352;2023-04-07T02:51:38;94471.34;;;2.16;59.66
56831;BME280;42713;42.676;23.352;2023-04-07T02:54:04;94474.72;;;2.17;59.09
56831;BME280;42713;42.676;23.352;2023-04-07T02:56:29;94476.16;;;2.20;59.35
56831;BME280;42713;42.676;23.352;2023-04-07T02:58:55;94466.97;;;2.17;59.00
56831;BME280;42713;42.676;23.352;2023-04-07T03:01:21;94476.94;;;2.20;60.13
56831;BME280;42713;42.676;23.352;2023-04-07T03:03:46;94471.97;;;2.18;60.06
56831;BME280;42713;42.676;23.352;2023-04-07T03:06:12;94472.53;;;2.21;59.60
56831;BME280;42713;42.676;23.352;2023-04-07T03:08:38;94476.53;;;2.23;58.93
56831;BME280;42713;42.676;23.352;2023-04-07T03:11:03;94467.81;;;2.24;59.13
56831;BME280;42713;42.676;23.352;2023-04-07T03:13:29;94474.56;;;2.18;59.41
56831;BME280;42713;42.676;23.352;2023-04-07T03:15:55;94473.34;;;2.21;59.64
56831;BME280;42713;42.676;23.352;2023-04-07T03:18:21;94470.19;;;2.26;59.39
56831;BME280;42713;42.676;23.352;2023-04-07T03:20:47;94475.16;;;2.27;58.88
56831;BME280;42713;42.676;23.352;2023-04-07T03:23:13;94474.56;;;2.32;59.29
56831;BME280;42713;42.676;23.352;2023-04-07T03:25:38;94467.41;;;2.34;59.58
56831;BME280;42713;42.676;23.352;2023-04-07T03:28:04;94468.41;;;2.40;59.91
56831;BME280;42713;42.676;23.352;2023-04-07T03:30:29;94463.25;;;2.40;59.42
56831;BME280;42713;42.676;23.352;2023-04-07T03:32:54;94459.88;;;2.39;57.73
56831;BME280;42713;42.676;23.352;2023-04-07T03:35:20;94467.78;;;2.31;53.16
56831;BME280;42713;42.676;23.352;2023-04-07T03:37:45;94466.03;;;2.31;51.35
56831;BME280;42713;42.676;23.352;2023-04-07T03:40:11;94464.41;;;2.24;50.37
56831;BME280;42713;42.676;23.352;2023-04-07T03:42:36;94458.63;;;2.22;49.76
56831;BME280;42713;42.676;23.352;2023-04-07T03:45:02;94463.03;;;2.21;49.81
56831;BME280;42713;42.676;23.352;2023-04-07T03:47:27;94464.00;;;2.20;48.82
56831;BME280;42713;42.676;23.352;2023-04-07T03:49:53;94464.41;;;2.24;48.42
56831;BME280;42713;42.676;23.352;2023-04-07T03:52:18;94468.97;;;2.22;48.43
56831;BME280;42713;42.676;23.352;2023-04-07T03:54:44;94471.97;;;2.25;48.80
56831;BME280;42713;42.676;23.352;2023-04-07T03:57:09;94474.56;;;2.32;48.36
56831;BME280;42713;42.676;23.352;2023-04-07T03:59:35;94476.94;;;2.27;49.41
56831;BME280;42713;42.676;23.352;2023-04-07T04:02:01;94477.34;;;2.30;51.76
56831;BME280;42713;42.676;23.352;2023-04-07T04:04:26;94485.13;;;2.37;53.36
56831;BME280;42713;42.676;23.352;2023-04-07T04:06:52;94484.69;;;2.40;53.98
56831;BME280;42713;42.676;23.352;2023-04-07T04:09:17;94487.09;;;2.42;55.25
56831;BME280;42713;42.676;23.352;2023-04-07T04:11:43;94492.28;;;2.42;55.60
56831;BME280;42713;42.676;23.352;2023-04-07T04:14:08;94490.88;;;2.39;56.48
56831;BME280;42713;42.676;23.352;2023-04-07T04:16:34;94489.69;;;2.42;56.14
56831;BME280;42713;42.676;23.352;2023-04-07T04:19:00;94496.25;;;2.44;56.59
56831;BME280;42713;42.676;23.352;2023-04-07T04:21:26;94493.06;;;2.42;56.60
56831;BME280;42713;42.676;23.352;2023-04-07T04:23:51;94495.66;;;2.42;57.08
56831;BME280;42713;42.676;23.352;2023-04-07T04:26:17;94494.25;;;2.40;57.56
56831;BME280;42713;42.676;23.352;2023-04-07T04:28:42;94497.84;;;2.39;58.05
56831;BME280;42713;42.676;23.352;2023-04-07T04:31:08;94504.97;;;2.37;58.50
56831;BME280;42713;42.676;23.352;2023-04-07T04:33:33;94504.19;;;2.36;58.84
56831;BME280;42713;42.676;23.352;2023-04-07T04:35:59;94500.59;;;2.30;58.99
56831;BME280;42713;42.676;23.352;2023-04-07T04:38:24;94507.78;;;2.35;59.09
56831;BME280;42713;42.676;23.352;2023-04-07T04:40:49;94511.94;;;2.36;59.28
56831;BME280;42713;42.676;23.352;2023-04-07T04:43:15;94511.75;;;2.38;58.98
56831;BME280;42713;42.676;23.352;2023-04-07T04:45:40;94511.38;;;2.41;58.63
56831;BME280;42713;42.676;23.352;2023-04-07T04:48:06;94512.75;;;2.43;58.56
56831;BME280;42713;42.676;23.352;2023-04-07T04:50:31;94505.81;;;2.44;58.34
56831;BME280;42713;42.676;23.352;2023-04-07T04:52:57;94514.38;;;2.51;57.98
56831;BME280;42713;42.676;23.352;2023-04-07T04:55:22;94512.97;;;2.55;58.47
56831;BME280;42713;42.676;23.352;2023-04-07T04:57:48;94521.53;;;2.56;57.81
56831;BME280;42713;42.676;23.352;2023-04-07T05:00:13;94520.34;;;2.58;57.26
56831;BME280;42713;42.676;23.352;2023-04-07T05:02:39;94521.34;;;2.64;57.36
56831;BME280;42713;42.676;23.352;2023-04-07T05:05:06;94526.50;;;2.64;57.36
56831;BME280;42713;42.676;23.352;2023-04-07T05:07:32;94527.13;;;2.66;56.77
56831;BME280;42713;42.676;23.352;2023-04-07T05:09:57;94529.91;;;2.71;56.92
56831;BME280;42713;42.676;23.352;2023-04-07T05:12:23;94533.28;;;2.72;56.37
56831;BME280;42713;42.676;23.352;2023-04-07T05:14:48;94534.28;;;2.77;56.53
56831;BME280;42713;42.676;23.352;2023-04-07T05:17:13;94541.84;;;2.79;56.69
56831;BME280;42713;42.676;23.352;2023-04-07T05:19:40;94540.47;;;2.83;55.98
56831;BME280;42713;42.676;23.352;2023-04-07T05:22:06;94537.69;;;2.85;56.08
56831;BME280;42713;42.676;23.352;2023-04-07T05:24:35;94537.28;;;2.88;55.99
56831;BME280;42713;42.676;23.352;2023-04-07T05:27:01;94538.88;;;2.89;56.08
56831;BME280;42713;42.676;23.352;2023-04-07T05:29:26;94538.28;;;2.93;55.98
56831;BME280;42713;42.676;23.352;2023-04-07T05:31:51;94547.44;;;3.03;56.14
56831;BME280;42713;42.676;23.352;2023-04-07T05:34:17;94537.28;;;3.08;55.53
56831;BME280;42713;42.676;23.352;2023-04-07T05:36:42;94542.66;;;3.13;55.74
56831;BME280;42713;42.676;23.352;2023-04-07T05:39:08;94548.03;;;3.18;55.80
56831;BME280;42713;42.676;23.352;2023-04-07T05:41:34;94549.41;;;3.21;55.23
56831;BME280;42713;42.676;23.352;2023-04-07T05:43:59;94537.28;;;3.28;55.23
56831;BME280;42713;42.676;23.352;2023-04-07T05:46:25;94538.44;;;3.32;55.03
56831;BME280;42713;42.676;23.352;2023-04-07T05:48:50;94547.22;;;3.38;54.99
56831;BME280;42713;42.676;23.352;2023-04-07T05:51:15;94545.81;;;3.42;55.02
56831;BME280;42713;42.676;23.352;2023-04-07T05:53:41;94548.38;;;3.49;55.63
56831;BME280;42713;42.676;23.352;2023-04-07T05:56:06;94542.59;;;3.53;55.27
56831;BME280;42713;42.676;23.352;2023-04-07T05:58:32;94545.38;;;3.58;54.32
56831;BME280;42713;42.676;23.352;2023-04-07T06:00:58;94544.19;;;3.61;54.14
56831;BME280;42713;42.676;23.352;2023-04-07T06:03:23;94547.16;;;3.65;53.95
56831;BME280;42713;42.676;23.352;2023-04-07T06:05:49;94539.78;;;3.68;53.51
56831;BME280;42713;42.676;23.352;2023-04-07T06:08:14;94538.22;;;3.67;53.74
56831;BME280;42713;42.676;23.352;2023-04-07T06:10:39;94546.16;;;3.72;53.75
56831;BME280;42713;42.676;23.352;2023-04-07T06:13:08;94541.75;;;3.73;53.38
56831;BME280;42713;42.676;23.352;2023-04-07T06:15:34;94543.34;;;3.81;53.47
56831;BME280;42713;42.676;23.352;2023-04-07T06:17:59;94540.72;;;3.87;53.33
56831;BME280;42713;42.676;23.352;2023-04-07T06:20:25;94545.69;;;3.89;53.08
56831;BME280;42713;42.676;23.352;2023-04-07T06:22:52;94541.69;;;4.00;53.80
56831;BME280;42713;42.676;23.352;2023-04-07T06:25:19;94540.06;;;4.05;52.98
56831;BME280;42713;42.676;23.352;2023-04-07T06:27:45;94535.28;;;4.09;52.89
56831;BME280;42713;42.676;23.352;2023-04-07T06:30:11;94533.47;;;4.10;52.23
56831;BME280;42713;42.676;23.352;2023-04-07T06:32:36;94532.66;;;4.16;52.39
56831;BME280;42713;42.676;23.352;2023-04-07T06:35:02;94544.19;;;4.20;52.17
56831;BME280;42713;42.676;23.352;2023-04-07T06:37:28;94543.19;;;4.21;51.56
56831;BME280;42713;42.676;23.352;2023-04-07T06:39:53;94540.38;;;4.23;51.32
56831;BME280;42713;42.676;23.352;2023-04-07T06:42:19;94531.59;;;4.24;51.57
56831;BME280;42713;42.676;23.352;2023-04-07T06:44:44;94531.38;;;4.32;51.34
56831;BME280;42713;42.676;23.352;2023-04-07T06:47:10;94543.13;;;4.34;51.99
56831;BME280;42713;42.676;23.352;2023-04-07T06:49:35;94542.47;;;4.46;51.54
56831;BME280;42713;42.676;23.352;2023-04-07T06:52:01;94541.03;;;4.57;51.17
56831;BME280;42713;42.676;23.352;2023-04-07T06:54:26;94543.94;;;4.67;50.09
56831;BME280;42713;42.676;23.352;2023-04-07T06:56:52;94539.28;;;4.76;50.21
56831;BME280;42713;42.676;23.352;2023-04-07T06:59:17;94546.28;;;4.75;50.54
56831;BME280;42713;42.676;23.352;2023-04-07T07:01:43;94537.28;;;4.78;50.64
56831;BME280;42713;42.676;23.352;2023-04-07T07:04:09;94538.25;;;4.83;50.42
56831;BME280;42713;42.676;23.352;2023-04-07T07:06:35;94545.00;;;4.91;50.15
56831;BME280;42713;42.676;23.352;2023-04-07T07:09:00;94545.09;;;5.03;48.92
56831;BME280;42713;42.676;23.352;2023-04-07T07:11:27;94535.84;;;5.14;48.74
56831;BME280;42713;42.676;23.352;2023-04-07T07:13:53;94544.13;;;5.23;47.96
56831;BME280;42713;42.676;23.352;2023-04-07T07:16:18;94556.91;;;5.24;47.24
56831;BME280;42713;42.676;23.352;2023-04-07T07:18:44;94548.56;;;5.22;47.88
56831;BME280;42713;42.676;23.352;2023-04-07T07:21:10;94554.44;;;5.36;48.26
56831;BME280;42713;42.676;23.352;2023-04-07T07:23:35;94553.47;;;5.30;43.70
56831;BME280;42713;42.676;23.352;2023-04-07T07:26:01;94543.91;;;5.24;41.19
56831;BME280;42713;42.676;23.352;2023-04-07T07:28:27;94564.31;;;4.95;41.96
56831;BME280;42713;42.676;23.352;2023-04-07T07:30:53;94566.38;;;4.87;41.39
56831;BME280;42713;42.676;23.352;2023-04-07T07:33:19;94558.03;;;4.78;42.12
56831;BME280;42713;42.676;23.352;2023-04-07T07:35:44;94567.59;;;4.84;41.50
56831;BME280;42713;42.676;23.352;2023-04-07T07:38:10;94578.53;;;4.86;40.95
56831;BME280;42713;42.676;23.352;2023-04-07T07:40:35;94565.19;;;4.82;41.65
56831;BME280;42713;42.676;23.352;2023-04-07T07:43:01;94564.38;;;4.89;41.73
56831;BME280;42713;42.676;23.352;2023-04-07T07:45:26;94574.53;;;4.90;41.67
56831;BME280;42713;42.676;23.352;2023-04-07T07:47:52;94575.13;;;4.92;41.52
56831;BME280;42713;42.676;23.352;2023-04-07T07:50:17;94581.59;;;4.83;41.71
56831;BME280;42713;42.676;23.352;2023-04-07T07:52:43;94574.69;;;4.95;41.31
56831;BME280;42713;42.676;23.352;2023-04-07T07:55:11;94576.66;;;5.00;41.05
56831;BME280;42713;42.676;23.352;2023-04-07T07:57:37;94584.25;;;5.02;40.56
56831;BME280;42713;42.676;23.352;2023-04-07T08:00:02;94593.00;;;5.07;40.82
56831;BME280;42713;42.676;23.352;2023-04-07T08:02:28;94586.00;;;5.08;40.75
56831;BME280;42713;42.676;23.352;2023-04-07T08:04:57;94578.22;;;5.08;40.12
56831;BME280;42713;42.676;23.352;2023-04-07T08:07:23;94582.81;;;5.06;40.52
56831;BME280;42713;42.676;23.352;2023-04-07T08:09:48;94576.03;;;5.05;40.88
56831;BME280;42713;42.676;23.352;2023-04-07T08:12:14;94570.97;;;5.17;40.37
56831;BME280;42713;42.676;23.352;2023-04-07T08:14:39;94584.84;;;5.29;40.76
56831;BME280;42713;42.676;23.352;2023-04-07T08:17:05;94576.56;;;5.39;40.53
56831;BME280;42713;42.676;23.352;2023-04-07T08:19:31;94574.88;;;5.51;40.00
56831;BME280;42713;42.676;23.352;2023-04-07T08:21:56;94576.84;;;5.56;39.72
56831;BME280;42713;42.676;23.352;2023-04-07T08:24:21;94585.00;;;5.59;39.48
56831;BME280;42713;42.676;23.352;2023-04-07T08:26:47;94585.00;;;5.59;38.94
56831;BME280;42713;42.676;23.352;2023-04-07T08:29:13;94570.19;;;5.60;39.70
56831;BME280;42713;42.676;23.352;2023-04-07T08:31:39;94572.13;;;5.65;39.99
56831;BME280;42713;42.676;23.352;2023-04-07T08:34:05;94571.72;;;5.68;39.99
56831;BME280;42713;42.676;23.352;2023-04-07T08:36:31;94565.22;;;5.77;39.41
56831;BME280;42713;42.676;23.352;2023-04-07T08:38:57;94568.06;;;5.75;39.42
56831;BME280;42713;42.676;23.352;2023-04-07T08:41:37;94563.44;;;5.78;40.57
56831;BME280;42713;42.676;23.352;2023-04-07T08:44:03;94566.69;;;5.91;39.94
56831;BME280;42713;42.676;23.352;2023-04-07T08:46:29;94576.38;;;6.03;39.65
56831;BME280;42713;42.676;23.352;2023-04-07T08:48:55;94561.81;;;6.02;39.59
56831;BME280;42713;42.676;23.352;2023-04-07T08:51:30;94572.59;;;5.99;39.27
56831;BME280;42713;42.676;23.352;2023-04-07T08:54:09;94563.22;;;5.98;39.17
56831;BME280;42713;42.676;23.352;2023-04-07T08:56:40;94570.91;;;6.11;38.47
56831;BME280;42713;42.676;23.352;2023-04-07T08:59:08;94572.56;;;6.05;38.76
56831;BME280;42713;42.676;23.352;2023-04-07T09:01:34;94589.63;;;5.95;38.82
56831;BME280;42713;42.676;23.352;2023-04-07T09:04:04;94579.69;;;5.91;38.88
56831;BME280;42713;42.676;23.352;2023-04-07T09:06:31;94574.63;;;5.97;38.71
56831;BME280;42713;42.676;23.352;2023-04-07T09:08:59;94572.94;;;6.09;38.73
56831;BME280;42713;42.676;23.352;2023-04-07T09:11:28;94571.69;;;6.12;38.69
56831;BME280;42713;42.676;23.352;2023-04-07T09:13:55;94583.69;;;6.13;38.35
56831;BME280;42713;42.676;23.352;2023-04-07T09:16:21;94574.16;;;6.06;39.12
56831;BME280;42713;42.676;23.352;2023-04-07T09:18:48;94569.63;;;6.02;38.58
56831;BME280;42713;42.676;23.352;2023-04-07T09:21:13;94568.16;;;6.06;38.76
56831;BME280;42713;42.676;23.352;2023-04-07T09:23:40;94576.31;;;6.10;39.11
56831;BME280;42713;42.676;23.352;2023-04-07T09:26:26;94580.91;;;5.89;38.85
56831;BME280;42713;42.676;23.352;2023-04-07T09:28:59;94568.06;;;5.94;39.18
56831;BME280;42713;42.676;23.352;2023-04-07T09:31:48;94559.13;;;6.08;39.69
56831;BME280;42713;42.676;23.352;2023-04-07T09:34:31;94559.91;;;6.28;39.78
56831;BME280;42713;42.676;23.352;2023-04-07T09:36:57;94570.38;;;6.39;39.13
56831;BME280;42713;42.676;23.352;2023-04-07T09:39:23;94594.47;;;6.47;38.61
56831;BME280;42713;42.676;23.352;2023-04-07T09:41:49;94587.78;;;6.39;38.26
56831;BME280;42713;42.676;23.352;2023-04-07T09:44:19;94574.50;;;6.29;38.87
56831;BME280;42713;42.676;23.352;2023-04-07T09:46:55;94571.72;;;6.42;39.06
56831;BME280;42713;42.676;23.352;2023-04-07T09:49:22;94602.38;;;6.59;38.64
56831;BME280;42713;42.676;23.352;2023-04-07T09:51:59;94583.94;;;6.42;38.30
56831;BME280;42713;42.676;23.352;2023-04-07T09:54:39;94592.78;;;6.41;39.00
56831;BME280;42713;42.676;23.352;2023-04-07T09:57:10;94588.16;;;6.43;39.00
56831;BME280;42713;42.676;23.352;2023-04-07T09:59:38;94600.16;;;6.44;38.73
56831;BME280;42713;42.676;23.352;2023-04-07T10:02:04;94591.81;;;6.53;39.46
56831;BME280;42713;42.676;23.352;2023-04-07T10:04:31;94582.50;;;6.76;38.84
56831;BME280;42713;42.676;23.352;2023-04-07T10:06:57;94588.59;;;7.00;38.33
56831;BME280;42713;42.676;23.352;2023-04-07T10:09:26;94576.97;;;7.15;38.03
56831;BME280;42713;42.676;23.352;2023-04-07T10:11:53;94590.91;;;7.32;37.83
56831;BME280;42713;42.676;23.352;2023-04-07T10:14:21;94582.19;;;7.39;37.69
56831;BME280;42713;42.676;23.352;2023-04-07T10:16:48;94588.06;;;7.34;37.38
56831;BME280;42713;42.676;23.352;2023-04-07T10:19:13;94574.94;;;7.29;37.45
56831;BME280;42713;42.676;23.352;2023-04-07T10:21:41;94576.06;;;7.21;37.77
56831;BME280;42713;42.676;23.352;2023-04-07T10:24:11;94569.03;;;7.22;38.74
56831;BME280;42713;42.676;23.352;2023-04-07T10:26:47;94574.88;;;7.05;38.83
56831;BME280;42713;42.676;23.352;2023-04-07T10:29:15;94586.72;;;6.89;38.89
56831;BME280;42713;42.676;23.352;2023-04-07T10:31:42;94580.91;;;6.75;39.10
56831;BME280;42713;42.676;23.352;2023-04-07T10:34:08;94583.00;;;6.54;38.58
56831;BME280;42713;42.676;23.352;2023-04-07T10:36:34;94591.94;;;6.59;38.95
56831;BME280;42713;42.676;23.352;2023-04-07T10:44:02;94585.75;;;7.02;41.16
56831;BME280;42713;42.676;23.352;2023-04-07T10:47:02;94594.53;;;6.89;42.23
56831;BME280;42713;42.676;23.352;2023-04-07T10:49:28;94593.81;;;6.70;43.02
56831;BME280;42713;42.676;23.352;2023-04-07T10:54:35;94603.59;;;6.87;42.14
56831;BME280;42713;42.676;23.352;2023-04-07T10:57:08;94594.09;;;6.80;41.66
56831;BME280;42713;42.676;23.352;2023-04-07T10:59:40;94587.72;;;6.46;42.15
56831;BME280;42713;42.676;23.352;2023-04-07T11:04:41;94592.47;;;6.49;42.14
56831;BME280;42713;42.676;23.352;2023-04-07T11:07:08;94601.25;;;6.66;41.74
56831;BME280;42713;42.676;23.352;2023-04-07T11:09:33;94607.09;;;6.80;41.83
56831;BME280;42713;42.676;23.352;2023-04-07T11:11:59;94603.06;;;6.96;41.51
56831;BME280;42713;42.676;23.352;2023-04-07T11:14:31;94595.97;;;7.04;41.96
56831;BME280;42713;42.676;23.352;2023-04-07T11:16:59;94602.22;;;7.26;41.22
56831;BME280;42713;42.676;23.352;2023-04-07T11:19:28;94609.53;;;7.06;40.80
56831;BME280;42713;42.676;23.352;2023-04-07T11:22:17;94601.88;;;6.80;42.35
56831;BME280;42713;42.676;23.352;2023-04-07T11:24:45;94607.03;;;6.99;41.88
56831;BME280;42713;42.676;23.352;2023-04-07T11:27:15;94607.91;;;6.93;41.55
56831;BME280;42713;42.676;23.352;2023-04-07T11:29:41;94608.00;;;6.86;42.01
56831;BME280;42713;42.676;23.352;2023-04-07T11:32:07;94600.34;;;6.91;41.67
56831;BME280;42713;42.676;23.352;2023-04-07T11:34:34;94611.34;;;7.05;41.83
56831;BME280;42713;42.676;23.352;2023-04-07T11:37:22;94618.00;;;7.01;41.52
56831;BME280;42713;42.676;23.352;2023-04-07T11:39:55;94612.13;;;7.06;41.77
56831;BME280;42713;42.676;23.352;2023-04-07T11:42:32;94612.91;;;6.94;42.33
56831;BME280;42713;42.676;23.352;2023-04-07T11:44:57;94622.91;;;6.79;42.75
56831;BME280;42713;42.676;23.352;2023-04-07T11:47:36;94610.16;;;6.89;43.09
56831;BME280;42713;42.676;23.352;2023-04-07T11:50:02;94619.94;;;7.06;42.59
56831;BME280;42713;42.676;23.352;2023-04-07T11:52:27;94610.56;;;7.05;42.40
56831;BME280;42713;42.676;23.352;2023-04-07T11:54:53;94616.03;;;7.15;42.21
56831;BME280;42713;42.676;23.352;2023-04-07T11:57:26;94608.44;;;7.13;42.01
56831;BME280;42713;42.676;23.352;2023-04-07T12:00:08;94615.47;;;7.25;42.44
56831;BME280;42713;42.676;23.352;2023-04-07T12:02:34;94598.75;;;7.44;42.59
56831;BME280;42713;42.676;23.352;2023-04-07T12:05:00;94601.00;;;7.53;42.04
56831;BME280;42713;42.676;23.352;2023-04-07T12:07:25;94600.34;;;7.57;41.43
56831;BME280;42713;42.676;23.352;2023-04-07T12:09:52;94600.19;;;7.40;41.69
56831;BME280;42713;42.676;23.352;2023-04-07T12:12:25;94597.06;;;7.50;42.36
56831;BME280;42713;42.676;23.352;2023-04-07T12:14:55;94608.16;;;7.69;41.59
56831;BME280;42713;42.676;23.352;2023-04-07T12:17:24;94604.09;;;7.97;41.84
56831;BME280;42713;42.676;23.352;2023-04-07T12:19:50;94603.72;;;8.17;41.20
56831;BME280;42713;42.676;23.352;2023-04-07T12:22:16;94601.59;;;8.43;40.82
56831;BME280;42713;42.676;23.352;2023-04-07T12:24:42;94605.06;;;8.72;40.11
56831;BME280;42713;42.676;23.352;2023-04-07T12:27:07;94598.56;;;8.34;39.84
56831;BME280;42713;42.676;23.352;2023-04-07T12:29:34;94601.16;;;8.46;40.23
56831;BME280;42713;42.676;23.352;2023-04-07T12:32:00;94602.78;;;8.23;39.96
56831;BME280;42713;42.676;23.352;2023-04-07T12:34:26;94604.00;;;8.45;39.92
56831;BME280;42713;42.676;23.352;2023-04-07T12:36:52;94614.06;;;8.12;40.57
56831;BME280;42713;42.676;23.352;2023-04-07T12:39:17;94617.66;;;7.99;40.71
56831;BME280;42713;42.676;23.352;2023-04-07T12:41:43;94599.00;;;7.78;41.11
56831;BME280;42713;42.676;23.352;2023-04-07T12:44:10;94598.84;;;7.85;41.63
56831;BME280;42713;42.676;23.352;2023-04-07T12:46:36;94579.09;;;8.13;40.77
56831;BME280;42713;42.676;23.352;2023-04-07T12:49:02;94587.13;;;8.23;41.04
56831;BME280;42713;42.676;23.352;2023-04-07T12:51:28;94592.94;;;8.14;41.03
56831;BME280;42713;42.676;23.352;2023-04-07T12:53:53;94599.28;;;8.30;41.43
56831;BME280;42713;42.676;23.352;2023-04-07T12:56:19;94593.97;;;8.13;41.12
56831;BME280;42713;42.676;23.352;2023-04-07T12:58:46;94613.38;;;7.93;41.64
56831;BME280;42713;42.676;23.352;2023-04-07T13:01:12;94604.88;;;7.98;41.35
56831;BME280;42713;42.676;23.352;2023-04-07T13:03:38;94608.06;;;7.88;40.87
56831;BME280;42713;42.676;23.352;2023-04-07T13:06:05;94607.94;;;7.83;41.94
56831;BME280;42713;42.676;23.352;2023-04-07T13:08:31;94611.19;;;8.14;41.76
56831;BME280;42713;42.676;23.352;2023-04-07T13:10:56;94615.28;;;8.09;40.98
56831;BME280;42713;42.676;23.352;2023-04-07T13:13:22;94610.31;;;8.08;41.06
56831;BME280;42713;42.676;23.352;2023-04-07T13:15:48;94613.34;;;8.05;40.60
56831;BME280;42713;42.676;23.352;2023-04-07T13:18:13;94614.16;;;8.05;40.64
56831;BME280;42713;42.676;23.352;2023-04-07T13:20:39;94618.25;;;7.77;41.59